W. C. Park Responder — WBO8587 — position and weather

sailwx.info

Track history (hours):
 
Tides and Currents Weather Stations Pressure Air Temp Water Temp Dewpoint Dewpoint Depression Visibility Wind Speed Wind Dir Waves Ship Positions

W. C. Park Responder

Owner: MARINE SPILL RESPONSE CORP, HERNDON, VA. More information available from US FCC via Universal Licensing System and Coast Guard Vessel Documentation Center.

Last reported at 2018-Jun-20 07:11 UTC. Time now 2018-Jun-20 11:12 UTC.
Position N 48°07' W 123°26'.

Length 70 m; draft 4.3 m.

Type: Pollution control. MMSI: 303436000.

Date/timePositionNaut miles runAvg speedWind from/ knotsBaromVisibWave heightAir tempDewpointWater temp
2018-Jun-20 07:11N 48°07' W 123°26'  
2018-Jun-17 14:33N 48°07' W 123°26'0 0.0
2018-Jun-17 14:27N 48°07' W 123°26'0 0.0
2018-Jun-17 14:00N 48°07' W 123°26'0 0.0
2018-Jun-16 12:30N 48°07' W 123°26'0 0.0
2018-Jun-16 11:59N 48°07' W 123°26'0 0.0
2018-Jun-16 11:11N 48°07' W 123°26'0 0.0
2018-Jun-16 10:53N 48°07' W 123°26'0 0.0
2018-Jun-14 13:49N 48°07' W 123°26'0 0.0
2018-Jun-14 13:16N 48°07' W 123°26'0 0.0
2018-Jun-14 12:58N 48°07' W 123°26'0 0.0
2018-Jun-14 12:30N 48°07' W 123°26'2 3.2
2018-Jun-14 12:00N 48°08' W 123°24'4 8.7
2018-Jun-14 11:30N 48°10' W 123°18'4 8.6
2018-Jun-14 11:00N 48°11' W 123°12'4 8.7
2018-Jun-14 10:30N 48°13' W 123°06'4 8.4
2018-Jun-14 10:00N 48°12' W 122°60'5 8.9
2018-Jun-14 09:29N 48°12' W 122°53'5 8.7
2018-Jun-14 08:57N 48°11' W 122°46'5 7.2
2018-Jun-14 08:14N 48°08' W 122°40'3 7.2
2018-Jun-14 07:45N 48°04' W 122°38'2 9.2
2018-Jun-14 07:29N 48°02' W 122°38'5 9.6
2018-Jun-14 06:58N 47°58' W 122°34'4 9.6
2018-Jun-14 06:30N 47°55' W 122°29'510.2
2018-Jun-14 06:00N 47°50' W 122°27'510.1
2018-Jun-14 05:30N 47°45' W 122°26'611.3
2018-Jun-14 05:00N 47°39' W 122°27'510.9
2018-Jun-14 04:30N 47°34' W 122°28'1 2.6
2018-Jun-14 04:00N 47°33' W 122°30'0 0.1
2018-Jun-14 03:30N 47°33' W 122°30'0 0.0
2018-Jun-14 03:00N 47°33' W 122°30'0 0.0
2018-Jun-14 02:30N 47°33' W 122°30'0 0.0
2018-Jun-14 02:00N 47°33' W 122°30'0 0.0
2018-Jun-14 01:30N 47°33' W 122°30'0 0.0
2018-Jun-14 01:00N 47°33' W 122°30'0 0.0
2018-Jun-14 00:30N 47°33' W 122°30'0 0.0
2018-Jun-14 00:00N 47°33' W 122°30'0 0.0
2018-Jun-13 23:30N 47°33' W 122°30'0 0.0
2018-Jun-13 23:00N 47°33' W 122°30'0 0.1
2018-Jun-13 22:30N 47°33' W 122°30'0 0.0
2018-Jun-13 22:00N 47°33' W 122°30'0 0.0
2018-Jun-13 21:30N 47°33' W 122°30'0 0.0
2018-Jun-13 20:59N 47°33' W 122°30'0 0.1
2018-Jun-13 20:29N 47°33' W 122°30'0 0.1
2018-Jun-13 19:59N 47°33' W 122°30'0 0.1
2018-Jun-13 19:29N 47°33' W 122°30'0 0.0
2018-Jun-13 18:59N 47°33' W 122°30'0 0.0
2018-Jun-13 18:29N 47°33' W 122°30'0 0.0
2018-Jun-13 17:59N 47°33' W 122°30'0 0.0
2018-Jun-13 17:29N 47°33' W 122°30'0 0.0
2018-Jun-13 16:59N 47°33' W 122°30'0 0.0
2018-Jun-13 16:29N 47°33' W 122°30'0 0.0
2018-Jun-13 15:59N 47°33' W 122°30'0 0.0
2018-Jun-13 15:29N 47°33' W 122°30'0 0.0
2018-Jun-13 14:59N 47°33' W 122°30'0 0.0
2018-Jun-13 14:29N 47°33' W 122°30'0 0.0
2018-Jun-13 13:59N 47°33' W 122°30'0 0.0
2018-Jun-13 13:29N 47°33' W 122°30'0 0.0
2018-Jun-13 12:59N 47°33' W 122°30'0 0.0
2018-Jun-13 12:29N 47°33' W 122°30'0 0.0
2018-Jun-13 11:59N 47°33' W 122°30'0 0.0
2018-Jun-13 11:29N 47°33' W 122°30'0 0.0
2018-Jun-13 10:59N 47°33' W 122°30'0 0.0
2018-Jun-13 10:29N 47°33' W 122°30'0 0.1
2018-Jun-13 09:59N 47°33' W 122°30'0 0.0
2018-Jun-13 09:29N 47°33' W 122°30'0 0.0
2018-Jun-13 08:59N 47°33' W 122°30'0 0.0
2018-Jun-13 08:29N 47°33' W 122°30'0 0.0
2018-Jun-13 07:59N 47°33' W 122°30'0 0.0
2018-Jun-13 07:29N 47°33' W 122°30'0 0.0
2018-Jun-13 06:59N 47°33' W 122°30'0 0.0
2018-Jun-13 06:29N 47°33' W 122°30'0 0.1
2018-Jun-13 05:59N 47°33' W 122°30'0 0.0
2018-Jun-13 05:29N 47°33' W 122°30'0 0.0
2018-Jun-13 04:56N 47°33' W 122°30'0 0.0
2018-Jun-13 04:29N 47°33' W 122°30'0 0.0
2018-Jun-13 03:59N 47°33' W 122°30'0 0.0
2018-Jun-13 03:29N 47°33' W 122°30'0 0.1
2018-Jun-13 02:59N 47°33' W 122°30'0 0.0
2018-Jun-13 02:29N 47°33' W 122°30'0 0.0
2018-Jun-13 01:59N 47°33' W 122°30'0 0.0
2018-Jun-13 01:29N 47°33' W 122°30'0 0.0
2018-Jun-13 00:59N 47°33' W 122°30'0 0.0
2018-Jun-13 00:29N 47°33' W 122°30'0 0.0
2018-Jun-12 23:59N 47°33' W 122°30'0 0.0
2018-Jun-12 23:29N 47°33' W 122°30'0 0.0
2018-Jun-12 22:59N 47°33' W 122°30'0 0.0
2018-Jun-12 22:29N 47°33' W 122°30'0 0.0
2018-Jun-12 21:59N 47°33' W 122°30'0 0.0
2018-Jun-12 21:29N 47°33' W 122°30'0 0.0
2018-Jun-12 20:59N 47°33' W 122°30'0 0.0
2018-Jun-12 20:29N 47°33' W 122°30'0 0.0
2018-Jun-12 19:59N 47°33' W 122°30'0 0.1
2018-Jun-12 19:29N 47°33' W 122°30'0 0.1
2018-Jun-12 18:59N 47°33' W 122°30'0 0.0
2018-Jun-12 18:29N 47°33' W 122°30'0 0.1
2018-Jun-12 17:59N 47°33' W 122°30'0 0.0
2018-Jun-12 17:29N 47°33' W 122°30'0 0.0
2018-Jun-12 16:59N 47°33' W 122°30'0 0.0
2018-Jun-12 16:29N 47°33' W 122°30'0 0.0
2018-Jun-12 15:59N 47°33' W 122°30'0 0.0
2018-Jun-12 15:29N 47°33' W 122°30'0 0.0
2018-Jun-12 14:59N 47°33' W 122°30'0 0.0
2018-Jun-12 14:29N 47°33' W 122°30'0 0.0
2018-Jun-12 13:59N 47°33' W 122°30'0 0.0
2018-Jun-12 13:29N 47°33' W 122°30'0 0.0
2018-Jun-12 12:59N 47°33' W 122°30'0 0.0
2018-Jun-12 12:29N 47°33' W 122°30'0 0.0
2018-Jun-12 11:59N 47°33' W 122°30'0 0.0
2018-Jun-12 11:29N 47°33' W 122°30'0 0.0
2018-Jun-12 10:59N 47°33' W 122°30'0 0.0
2018-Jun-12 10:29N 47°33' W 122°30'0 0.1
2018-Jun-12 09:59N 47°33' W 122°30'0 0.0
2018-Jun-12 09:29N 47°33' W 122°30'0 0.0
2018-Jun-12 08:59N 47°33' W 122°30'0 0.1
2018-Jun-12 08:30N 47°33' W 122°30'3 5.0
2018-Jun-12 08:01N 47°35' W 122°28'611.5
2018-Jun-12 07:30N 47°41' W 122°28'611.6
2018-Jun-12 07:00N 47°47' W 122°27'611.8
2018-Jun-12 06:30N 47°53' W 122°29'41 2.5
2018-Jun-11 13:47N 48°07' W 123°26'0 0.0
2018-Jun-11 13:17N 48°07' W 123°26'0 0.0
2018-Jun-11 12:53N 48°07' W 123°26'0 0.0
2018-Jun-11 12:23N 48°07' W 123°26'0 0.0
2018-Jun-11 11:53N 48°07' W 123°26'0 0.0
2018-Jun-11 11:29N 48°07' W 123°26'0 0.0
2018-Jun-11 10:59N 48°07' W 123°26'0 0.0
2018-Jun-11 10:29N 48°07' W 123°26'0 0.0
2018-Jun-11 09:59N 48°07' W 123°26'0 0.0
2018-Jun-11 09:17N 48°07' W 123°26'0 0.0
2018-Jun-11 08:59N 48°07' W 123°26'0 0.0
2018-Jun-11 08:29N 48°07' W 123°26'0 0.0
2018-Jun-11 07:59N 48°07' W 123°26'0 0.0
2018-Jun-11 07:29N 48°07' W 123°26'0 0.0
2018-Jun-11 06:58N 48°07' W 123°26'0 0.0
2018-Jun-11 06:16N 48°07' W 123°26'0 0.0
2018-Jun-11 05:58N 48°07' W 123°26'0 0.0
2018-Jun-10 15:01N 48°07' W 123°26'0 0.0
2018-Jun-10 14:37N 48°07' W 123°26'0 0.0
2018-Jun-10 14:28N 48°07' W 123°26'0 0.0
2018-Jun-10 13:28N 48°07' W 123°26'0 0.0
2018-Jun-10 12:58N 48°07' W 123°26'0 0.0
2018-Jun-10 12:28N 48°07' W 123°26'0 0.0
2018-Jun-10 11:58N 48°07' W 123°26'0 0.0
2018-Jun-10 11:28N 48°07' W 123°26'0 0.0
2018-Jun-10 10:46N 48°07' W 123°26'0 0.0
2018-Jun-10 10:28N 48°07' W 123°26'0 0.0
2018-Jun-10 09:58N 48°07' W 123°26'0 0.0
2018-Jun-10 09:28N 48°07' W 123°26'0 0.0
2018-Jun-10 08:58N 48°07' W 123°26'  
Track history (hours):
 
Tides and Currents Weather Stations Pressure Air Temp Water Temp Dewpoint Dewpoint Depression Visibility Wind Speed Wind Dir Waves Ship Positions

W. C. Park Responder

Owner: MARINE SPILL RESPONSE CORP, HERNDON, VA. More information available from US FCC via Universal Licensing System and Coast Guard Vessel Documentation Center.

Last reported at 2018-Jun-20 07:11 UTC. Time now 2018-Jun-20 11:12 UTC.
Position N 48°07' W 123°26'.

Length 70 m; draft 4.3 m.

Type: Pollution control. MMSI: 303436000.

Date/timePositionNaut miles runAvg speedWind from/ knotsBaromVisibWave heightAir tempDewpointWater temp
2018-Jun-20 07:11N 48°07' W 123°26'  
2018-Jun-17 14:33N 48°07' W 123°26'0 0.0
2018-Jun-17 14:27N 48°07' W 123°26'0 0.0
2018-Jun-17 14:00N 48°07' W 123°26'0 0.0
2018-Jun-16 12:30N 48°07' W 123°26'0 0.0
2018-Jun-16 11:59N 48°07' W 123°26'0 0.0
2018-Jun-16 11:11N 48°07' W 123°26'0 0.0
2018-Jun-16 10:53N 48°07' W 123°26'0 0.0
2018-Jun-14 13:49N 48°07' W 123°26'0 0.0
2018-Jun-14 13:16N 48°07' W 123°26'0 0.0
2018-Jun-14 12:58N 48°07' W 123°26'0 0.0
2018-Jun-14 12:30N 48°07' W 123°26'2 3.2
2018-Jun-14 12:00N 48°08' W 123°24'4 8.7
2018-Jun-14 11:30N 48°10' W 123°18'4 8.6
2018-Jun-14 11:00N 48°11' W 123°12'4 8.7
2018-Jun-14 10:30N 48°13' W 123°06'4 8.4
2018-Jun-14 10:00N 48°12' W 122°60'5 8.9
2018-Jun-14 09:29N 48°12' W 122°53'5 8.7
2018-Jun-14 08:57N 48°11' W 122°46'5 7.2
2018-Jun-14 08:14N 48°08' W 122°40'3 7.2
2018-Jun-14 07:45N 48°04' W 122°38'2 9.2
2018-Jun-14 07:29N 48°02' W 122°38'5 9.6
2018-Jun-14 06:58N 47°58' W 122°34'4 9.6
2018-Jun-14 06:30N 47°55' W 122°29'510.2
2018-Jun-14 06:00N 47°50' W 122°27'510.1
2018-Jun-14 05:30N 47°45' W 122°26'611.3
2018-Jun-14 05:00N 47°39' W 122°27'510.9
2018-Jun-14 04:30N 47°34' W 122°28'1 2.6
2018-Jun-14 04:00N 47°33' W 122°30'0 0.1
2018-Jun-14 03:30N 47°33' W 122°30'0 0.0
2018-Jun-14 03:00N 47°33' W 122°30'0 0.0
2018-Jun-14 02:30N 47°33' W 122°30'0 0.0
2018-Jun-14 02:00N 47°33' W 122°30'0 0.0
2018-Jun-14 01:30N 47°33' W 122°30'0 0.0
2018-Jun-14 01:00N 47°33' W 122°30'0 0.0
2018-Jun-14 00:30N 47°33' W 122°30'0 0.0
2018-Jun-14 00:00N 47°33' W 122°30'0 0.0
2018-Jun-13 23:30N 47°33' W 122°30'0 0.0
2018-Jun-13 23:00N 47°33' W 122°30'0 0.1
2018-Jun-13 22:30N 47°33' W 122°30'0 0.0
2018-Jun-13 22:00N 47°33' W 122°30'0 0.0
2018-Jun-13 21:30N 47°33' W 122°30'0 0.0
2018-Jun-13 20:59N 47°33' W 122°30'0 0.1
2018-Jun-13 20:29N 47°33' W 122°30'0 0.1
2018-Jun-13 19:59N 47°33' W 122°30'0 0.1
2018-Jun-13 19:29N 47°33' W 122°30'0 0.0
2018-Jun-13 18:59N 47°33' W 122°30'0 0.0
2018-Jun-13 18:29N 47°33' W 122°30'0 0.0
2018-Jun-13 17:59N 47°33' W 122°30'0 0.0
2018-Jun-13 17:29N 47°33' W 122°30'0 0.0
2018-Jun-13 16:59N 47°33' W 122°30'0 0.0
2018-Jun-13 16:29N 47°33' W 122°30'0 0.0
2018-Jun-13 15:59N 47°33' W 122°30'0 0.0
2018-Jun-13 15:29N 47°33' W 122°30'0 0.0
2018-Jun-13 14:59N 47°33' W 122°30'0 0.0
2018-Jun-13 14:29N 47°33' W 122°30'0 0.0
2018-Jun-13 13:59N 47°33' W 122°30'0 0.0
2018-Jun-13 13:29N 47°33' W 122°30'0 0.0
2018-Jun-13 12:59N 47°33' W 122°30'0 0.0
2018-Jun-13 12:29N 47°33' W 122°30'0 0.0
2018-Jun-13 11:59N 47°33' W 122°30'0 0.0
2018-Jun-13 11:29N 47°33' W 122°30'0 0.0
2018-Jun-13 10:59N 47°33' W 122°30'0 0.0
2018-Jun-13 10:29N 47°33' W 122°30'0 0.1
2018-Jun-13 09:59N 47°33' W 122°30'0 0.0
2018-Jun-13 09:29N 47°33' W 122°30'0 0.0
2018-Jun-13 08:59N 47°33' W 122°30'0 0.0
2018-Jun-13 08:29N 47°33' W 122°30'0 0.0
2018-Jun-13 07:59N 47°33' W 122°30'0 0.0
2018-Jun-13 07:29N 47°33' W 122°30'0 0.0
2018-Jun-13 06:59N 47°33' W 122°30'0 0.0
2018-Jun-13 06:29N 47°33' W 122°30'0 0.1
2018-Jun-13 05:59N 47°33' W 122°30'0 0.0
2018-Jun-13 05:29N 47°33' W 122°30'0 0.0
2018-Jun-13 04:56N 47°33' W 122°30'0 0.0
2018-Jun-13 04:29N 47°33' W 122°30'0 0.0
2018-Jun-13 03:59N 47°33' W 122°30'0 0.0
2018-Jun-13 03:29N 47°33' W 122°30'0 0.1
2018-Jun-13 02:59N 47°33' W 122°30'0 0.0
2018-Jun-13 02:29N 47°33' W 122°30'0 0.0
2018-Jun-13 01:59N 47°33' W 122°30'0 0.0
2018-Jun-13 01:29N 47°33' W 122°30'0 0.0
2018-Jun-13 00:59N 47°33' W 122°30'0 0.0
2018-Jun-13 00:29N 47°33' W 122°30'0 0.0
2018-Jun-12 23:59N 47°33' W 122°30'0 0.0
2018-Jun-12 23:29N 47°33' W 122°30'0 0.0
2018-Jun-12 22:59N 47°33' W 122°30'0 0.0
2018-Jun-12 22:29N 47°33' W 122°30'0 0.0
2018-Jun-12 21:59N 47°33' W 122°30'0 0.0
2018-Jun-12 21:29N 47°33' W 122°30'0 0.0
2018-Jun-12 20:59N 47°33' W 122°30'0 0.0
2018-Jun-12 20:29N 47°33' W 122°30'0 0.0
2018-Jun-12 19:59N 47°33' W 122°30'0 0.1
2018-Jun-12 19:29N 47°33' W 122°30'0 0.1
2018-Jun-12 18:59N 47°33' W 122°30'0 0.0
2018-Jun-12 18:29N 47°33' W 122°30'0 0.1
2018-Jun-12 17:59N 47°33' W 122°30'0 0.0
2018-Jun-12 17:29N 47°33' W 122°30'0 0.0
2018-Jun-12 16:59N 47°33' W 122°30'0 0.0
2018-Jun-12 16:29N 47°33' W 122°30'0 0.0
2018-Jun-12 15:59N 47°33' W 122°30'0 0.0
2018-Jun-12 15:29N 47°33' W 122°30'0 0.0
2018-Jun-12 14:59N 47°33' W 122°30'0 0.0
2018-Jun-12 14:29N 47°33' W 122°30'0 0.0
2018-Jun-12 13:59N 47°33' W 122°30'0 0.0
2018-Jun-12 13:29N 47°33' W 122°30'0 0.0
2018-Jun-12 12:59N 47°33' W 122°30'0 0.0
2018-Jun-12 12:29N 47°33' W 122°30'0 0.0
2018-Jun-12 11:59N 47°33' W 122°30'0 0.0
2018-Jun-12 11:29N 47°33' W 122°30'0 0.0
2018-Jun-12 10:59N 47°33' W 122°30'0 0.0
2018-Jun-12 10:29N 47°33' W 122°30'0 0.1
2018-Jun-12 09:59N 47°33' W 122°30'0 0.0
2018-Jun-12 09:29N 47°33' W 122°30'0 0.0
2018-Jun-12 08:59N 47°33' W 122°30'0 0.1
2018-Jun-12 08:30N 47°33' W 122°30'3 5.0
2018-Jun-12 08:01N 47°35' W 122°28'611.5
2018-Jun-12 07:30N 47°41' W 122°28'611.6
2018-Jun-12 07:00N 47°47' W 122°27'611.8
2018-Jun-12 06:30N 47°53' W 122°29'41 2.5
2018-Jun-11 13:47N 48°07' W 123°26'0 0.0
2018-Jun-11 13:17N 48°07' W 123°26'0 0.0
2018-Jun-11 12:53N 48°07' W 123°26'0 0.0
2018-Jun-11 12:23N 48°07' W 123°26'0 0.0
2018-Jun-11 11:53N 48°07' W 123°26'0 0.0
2018-Jun-11 11:29N 48°07' W 123°26'0 0.0
2018-Jun-11 10:59N 48°07' W 123°26'0 0.0
2018-Jun-11 10:29N 48°07' W 123°26'0 0.0
2018-Jun-11 09:59N 48°07' W 123°26'0 0.0
2018-Jun-11 09:17N 48°07' W 123°26'0 0.0
2018-Jun-11 08:59N 48°07' W 123°26'0 0.0
2018-Jun-11 08:29N 48°07' W 123°26'0 0.0
2018-Jun-11 07:59N 48°07' W 123°26'0 0.0
2018-Jun-11 07:29N 48°07' W 123°26'0 0.0
2018-Jun-11 06:58N 48°07' W 123°26'0 0.0
2018-Jun-11 06:16N 48°07' W 123°26'0 0.0
2018-Jun-11 05:58N 48°07' W 123°26'0 0.0
2018-Jun-10 15:01N 48°07' W 123°26'0 0.0
2018-Jun-10 14:37N 48°07' W 123°26'0 0.0
2018-Jun-10 14:28N 48°07' W 123°26'0 0.0
2018-Jun-10 13:28N 48°07' W 123°26'0 0.0
2018-Jun-10 12:58N 48°07' W 123°26'0 0.0
2018-Jun-10 12:28N 48°07' W 123°26'0 0.0
2018-Jun-10 11:58N 48°07' W 123°26'0 0.0
2018-Jun-10 11:28N 48°07' W 123°26'0 0.0
2018-Jun-10 10:46N 48°07' W 123°26'0 0.0
2018-Jun-10 10:28N 48°07' W 123°26'0 0.0
2018-Jun-10 09:58N 48°07' W 123°26'0 0.0
2018-Jun-10 09:28N 48°07' W 123°26'0 0.0
2018-Jun-10 08:58N 48°07' W 123°26'  

Dump ship's entire track history